createdAt,value
2023-04-02T06:01:06.010Z,102067.03
2023-04-02T06:07:34.653Z,102071.38
2023-04-02T06:10:36.838Z,102078.56
2023-04-02T06:23:13.100Z,102117.13
2023-04-02T06:26:14.674Z,102125.59
2023-04-02T06:32:14.519Z,102133.75
2023-04-02T06:41:23.401Z,102146.91
2023-04-02T06:44:11.063Z,102149.38
2023-04-02T06:48:27.478Z,102153.94
2023-04-02T06:50:07.250Z,102146.81
2023-04-02T06:53:48.422Z,102158.84
2023-04-02T06:56:37.932Z,102165.38
2023-04-02T06:59:41.975Z,102179.56
2023-04-02T07:03:06.070Z,102193.88
2023-04-02T07:06:35.510Z,102204.47
2023-04-02T07:08:51.266Z,102210.00
2023-04-02T07:11:36.641Z,102213.59
2023-04-02T07:14:42.264Z,102220.13
2023-04-02T07:17:26.247Z,102225.97
2023-04-02T07:20:12.306Z,102220.13
2023-04-02T07:24:09.098Z,102230.19
2023-04-02T07:29:48.269Z,102252.56
2023-04-02T07:32:50.660Z,102256.63
2023-04-02T07:35:48.468Z,102275.66
2023-04-02T07:38:40.316Z,102271.25
2023-04-02T07:41:33.956Z,102273.72
2023-04-02T07:44:47.271Z,102290.97
2023-04-02T07:48:04.528Z,102284.28
2023-04-02T07:53:40.987Z,102298.13
2023-04-02T07:59:17.073Z,102294.56
2023-04-02T08:03:21.054Z,102298.47
2023-04-02T08:09:02.424Z,102299.44
2023-04-02T08:12:08.200Z,102317.78
2023-04-02T08:18:12.207Z,102329.69
2023-04-02T08:21:23.125Z,102323.41
2023-04-02T08:24:20.716Z,102344.56
2023-04-02T08:26:55.252Z,102339.66
2023-04-02T08:29:50.910Z,102338.44
2023-04-02T08:32:33.215Z,102358.69
2023-04-02T08:35:25.630Z,102368.94
2023-04-02T08:38:22.145Z,102365.88
2023-04-02T08:40:54.128Z,102375.78
2023-04-02T08:44:00.517Z,102383.31
2023-04-02T08:46:55.412Z,102383.50
2023-04-02T08:49:46.920Z,102383.47
2023-04-02T08:53:24.406Z,102388.69
2023-04-02T08:58:56.554Z,102400.47
2023-04-02T09:01:54.212Z,102407.34
2023-04-02T09:04:46.957Z,102420.00
2023-04-02T18:06:44.083Z,102894.31
